createdAt,value
2022-10-07T00:01:55.973Z,88.81
2022-10-07T00:04:22.323Z,88.52
2022-10-07T00:06:48.853Z,88.21
2022-10-07T00:09:15.187Z,88.48
2022-10-07T00:11:41.826Z,88.56
2022-10-07T00:14:08.589Z,88.28
2022-10-07T00:16:37.964Z,88.60
2022-10-07T00:19:07.538Z,88.54
2022-10-07T00:21:35.356Z,88.79
2022-10-07T00:24:02.217Z,88.72
2022-10-07T00:26:30.908Z,88.67
2022-10-07T00:28:57.558Z,88.68
2022-10-07T00:31:36.470Z,88.82
2022-10-07T00:34:04.005Z,88.55
2022-10-07T00:36:35.665Z,88.65
2022-10-07T00:39:07.970Z,88.51
2022-10-07T00:41:50.095Z,88.53
2022-10-07T00:44:31.662Z,88.72
2022-10-07T00:47:05.981Z,88.70
2022-10-07T00:49:41.660Z,88.68
2022-10-07T00:52:08.453Z,88.69
2022-10-07T00:54:36.238Z,88.62
2022-10-07T00:57:03.433Z,88.88
2022-10-07T00:59:29.804Z,89.03
2022-10-07T01:01:56.145Z,88.96
2022-10-07T01:04:22.504Z,88.90
2022-10-07T01:06:48.927Z,88.73
2022-10-07T01:09:15.637Z,88.73
2022-10-07T01:12:01.304Z,88.91
2022-10-07T01:15:03.857Z,89.14
2022-10-07T01:17:46.224Z,88.75
2022-10-07T01:20:25.638Z,88.91
2022-10-07T01:22:56.608Z,88.91
2022-10-07T01:25:26.339Z,88.94
2022-10-07T01:28:00.925Z,89.23
2022-10-07T01:30:31.650Z,89.20
2022-10-07T01:33:04.340Z,89.40
2022-10-07T01:35:35.197Z,89.31
2022-10-07T01:38:06.722Z,88.87
2022-10-07T01:40:41.942Z,89.29
2022-10-07T01:43:08.669Z,89.16
2022-10-07T01:45:39.693Z,89.20
2022-10-07T01:48:06.177Z,89.06
2022-10-07T01:50:33.458Z,89.02
2022-10-07T01:53:12.581Z,88.99
2022-10-07T01:55:50.296Z,89.83
2022-10-07T01:58:41.129Z,89.67
2022-10-07T02:01:27.132Z,89.82
2022-10-07T02:04:19.398Z,89.96
2022-10-07T02:06:59.750Z,89.61
2022-10-07T02:09:36.496Z,89.99
2022-10-07T02:13:01.417Z,90.13
2022-10-07T02:15:36.271Z,90.21
2022-10-07T02:18:08.073Z,90.34
2022-10-07T02:20:38.039Z,90.26
2022-10-07T02:23:08.497Z,90.17
2022-10-07T02:25:40.823Z,90.52
2022-10-07T02:28:10.514Z,90.15
2022-10-07T02:30:37.803Z,90.39
2022-10-07T02:33:07.654Z,90.57
2022-10-07T02:35:45.312Z,90.70
2022-10-07T02:38:14.441Z,90.49
2022-10-07T02:40:59.748Z,90.89
2022-10-07T02:43:50.580Z,91.04
2022-10-07T02:46:24.975Z,90.88
2022-10-07T02:48:58.738Z,90.75
2022-10-07T02:51:34.962Z,91.31
2022-10-07T02:54:03.398Z,91.29
2022-10-07T02:56:33.705Z,91.32
2022-10-07T02:59:06.694Z,91.19
2022-10-07T03:01:38.632Z,91.38
2022-10-07T03:04:05.934Z,91.49
2022-10-07T03:06:34.949Z,91.54
2022-10-07T03:09:01.676Z,91.48
2022-10-07T03:11:28.546Z,91.42
2022-10-07T03:13:54.971Z,91.39
2022-10-07T03:16:21.560Z,91.30
2022-10-07T03:18:47.944Z,91.35
2022-10-07T03:21:14.402Z,91.81
2022-10-07T03:23:40.735Z,91.60
2022-10-07T03:26:07.048Z,91.59
2022-10-07T03:28:37.211Z,91.79
2022-10-07T03:31:05.944Z,92.10
2022-10-07T03:33:32.462Z,92.07
2022-10-07T03:35:58.773Z,92.46
2022-10-07T03:38:25.104Z,92.35
2022-10-07T03:40:51.423Z,92.48
2022-10-07T03:43:18.278Z,92.45
2022-10-07T03:45:51.158Z,92.25
2022-10-07T03:48:18.145Z,92.67
2022-10-07T03:50:56.413Z,92.54
2022-10-07T03:53:23.573Z,92.60
2022-10-07T03:55:50.352Z,92.46
2022-10-07T03:58:16.769Z,92.21
2022-10-07T04:00:43.178Z,92.76
2022-10-07T04:03:10.031Z,92.81
2022-10-07T04:05:36.991Z,92.93
2022-10-07T04:08:07.251Z,92.96
2022-10-07T04:10:34.388Z,92.95
2022-10-07T04:13:01.009Z,92.78
2022-10-07T04:15:27.401Z,92.81
2022-10-07T04:17:58.459Z,93.05
2022-10-07T04:20:25.983Z,92.83
2022-10-07T04:22:52.366Z,92.71
2022-10-07T04:25:33.913Z,92.58
2022-10-07T04:28:08.466Z,92.73
2022-10-07T04:30:39.785Z,93.03
2022-10-07T04:33:06.301Z,92.87
2022-10-07T04:35:36.729Z,93.32
2022-10-07T04:38:03.093Z,93.02
2022-10-07T04:40:30.948Z,93.16
2022-10-07T04:43:15.908Z,93.22
2022-10-07T04:45:42.255Z,92.78
2022-10-07T04:48:08.714Z,93.08
2022-10-07T04:50:38.501Z,93.15
2022-10-07T04:53:10.843Z,93.25
2022-10-07T04:55:42.661Z,92.96
2022-10-07T04:58:09.881Z,93.14
2022-10-07T05:00:45.202Z,93.33
2022-10-07T05:03:13.872Z,93.16
2022-10-07T05:05:42.278Z,93.01
2022-10-07T05:08:09.010Z,93.01
2022-10-07T05:10:37.169Z,93.28
2022-10-07T05:13:04.955Z,93.12
2022-10-07T05:15:31.701Z,93.24
2022-10-07T05:17:58.252Z,93.50
2022-10-07T05:20:24.617Z,93.36
2022-10-07T05:22:50.965Z,93.23
2022-10-07T05:25:17.352Z,93.47
2022-10-07T05:27:44.169Z,93.68
2022-10-07T05:30:11.487Z,93.54
2022-10-07T05:32:37.817Z,93.59
2022-10-07T05:35:04.446Z,93.56
2022-10-07T05:37:32.280Z,93.31
2022-10-07T05:39:58.653Z,93.43
2022-10-07T05:42:24.979Z,93.63
2022-10-07T05:44:51.370Z,93.56
2022-10-07T05:47:18.833Z,93.44
2022-10-07T05:49:45.181Z,93.36
2022-10-07T05:52:11.569Z,93.28
2022-10-07T05:54:38.230Z,93.51
2022-10-07T05:57:04.757Z,93.54
2022-10-07T05:59:31.326Z,93.35
2022-10-07T06:02:00.121Z,93.52
2022-10-07T06:04:27.535Z,93.69
2022-10-07T06:06:53.909Z,93.58
2022-10-07T06:09:39.609Z,93.39
2022-10-07T06:12:24.397Z,93.58
2022-10-07T06:14:51.231Z,93.65
2022-10-07T06:17:17.588Z,93.66
2022-10-07T06:19:43.903Z,93.24
2022-10-07T06:22:11.085Z,93.19
2022-10-07T06:24:37.489Z,93.05
2022-10-07T06:27:03.975Z,93.02
2022-10-07T06:29:30.350Z,92.77
2022-10-07T06:31:56.681Z,93.02
2022-10-07T06:34:23.066Z,92.81
2022-10-07T06:36:49.429Z,92.87
2022-10-07T06:39:17.597Z,92.50
2022-10-07T06:41:44.268Z,92.37
2022-10-07T06:44:10.713Z,92.49
2022-10-07T06:46:37.037Z,92.08
2022-10-07T06:49:04.771Z,91.98
2022-10-07T06:51:31.182Z,91.98
2022-10-07T06:54:00.200Z,91.66
2022-10-07T06:56:26.553Z,91.40
2022-10-07T06:58:52.979Z,91.45
2022-10-07T07:01:19.364Z,91.13
2022-10-07T07:03:45.898Z,91.15
2022-10-07T07:06:12.349Z,90.89
2022-10-07T07:08:41.268Z,91.20
2022-10-07T07:11:29.400Z,91.17
2022-10-07T07:13:56.507Z,91.02
2022-10-07T07:16:27.058Z,90.85
2022-10-07T07:18:56.144Z,90.94
2022-10-07T07:21:23.184Z,90.89
2022-10-07T07:23:53.912Z,90.76
2022-10-07T07:26:20.786Z,90.48
2022-10-07T07:28:54.990Z,90.00
2022-10-07T07:31:21.433Z,89.75
2022-10-07T07:33:52.392Z,89.54
2022-10-07T07:36:22.594Z,89.38
2022-10-07T07:39:01.385Z,89.08
2022-10-07T07:41:31.381Z,89.06
2022-10-07T07:43:59.854Z,88.78
2022-10-07T07:46:31.963Z,88.23
2022-10-07T07:48:58.467Z,87.91
2022-10-07T07:51:25.070Z,87.54
2022-10-07T07:53:52.275Z,87.13
2022-10-07T07:56:20.149Z,86.76
2022-10-07T07:58:46.880Z,86.34
2022-10-07T08:01:16.026Z,86.03
2022-10-07T08:03:44.465Z,85.56
2022-10-07T08:06:12.110Z,85.00
2022-10-07T08:08:40.046Z,84.68
2022-10-07T08:11:08.070Z,84.32
2022-10-07T08:13:36.394Z,84.42
2022-10-07T08:16:04.939Z,83.71
2022-10-07T08:18:32.198Z,83.20
2022-10-07T08:21:00.285Z,82.95
2022-10-07T08:23:29.292Z,82.97
2022-10-07T08:25:59.698Z,82.48
2022-10-07T08:28:28.259Z,81.50
2022-10-07T08:31:01.105Z,81.46
2022-10-07T08:33:27.512Z,80.97
2022-10-07T08:36:01.124Z,80.16
2022-10-07T08:38:32.981Z,80.02
2022-10-07T08:41:14.113Z,80.53
2022-10-07T08:43:46.442Z,80.08
2022-10-07T08:46:16.709Z,79.90
2022-10-07T08:48:52.124Z,80.00
2022-10-07T08:51:24.551Z,79.68
2022-10-07T08:53:55.643Z,79.10
2022-10-07T08:56:26.785Z,78.47
2022-10-07T08:59:21.682Z,78.62
2022-10-07T09:02:14.269Z,78.36
2022-10-07T09:04:46.517Z,78.42
2022-10-07T09:07:25.659Z,77.69
2022-10-07T09:10:06.740Z,77.63
2022-10-07T09:12:41.961Z,77.50
2022-10-07T09:15:19.610Z,77.69
2022-10-07T09:17:59.086Z,78.41
2022-10-07T09:20:42.056Z,78.36
2022-10-07T09:23:15.270Z,78.38
2022-10-07T09:25:43.267Z,78.67
2022-10-07T09:28:16.062Z,77.89
2022-10-07T09:30:42.945Z,77.59
2022-10-07T09:33:16.267Z,76.65
2022-10-07T09:35:57.261Z,76.78
2022-10-07T09:38:39.621Z,76.33
2022-10-07T09:41:30.394Z,76.01
2022-10-07T09:44:19.446Z,76.05
2022-10-07T09:46:59.369Z,75.84
2022-10-07T09:49:28.775Z,75.34
2022-10-07T09:52:02.212Z,74.31
2022-10-07T09:54:30.883Z,74.61
2022-10-07T09:57:00.073Z,74.39
2022-10-07T09:59:27.883Z,74.99
2022-10-07T10:01:57.833Z,74.60
2022-10-07T10:04:31.600Z,73.85
2022-10-07T10:07:06.313Z,73.34
2022-10-07T10:09:34.918Z,73.45
2022-10-07T10:12:12.845Z,72.43
2022-10-07T10:14:49.999Z,72.19
2022-10-07T10:17:27.036Z,71.68
2022-10-07T10:19:53.925Z,71.71
2022-10-07T10:22:26.814Z,71.02
2022-10-07T10:25:13.425Z,70.18
2022-10-07T10:27:54.213Z,70.93
2022-10-07T10:30:22.692Z,71.03
2022-10-07T10:33:07.566Z,70.55
2022-10-07T10:35:39.414Z,70.37
2022-10-07T10:38:33.044Z,69.92
2022-10-07T10:41:19.911Z,69.88
2022-10-07T10:44:03.474Z,69.32
2022-10-07T10:46:59.988Z,67.92
2022-10-07T10:49:54.747Z,68.00
2022-10-07T10:52:35.345Z,67.70
2022-10-07T10:55:17.729Z,67.38
2022-10-07T10:57:56.843Z,67.02
2022-10-07T11:00:48.846Z,66.60
2022-10-07T11:03:34.074Z,66.15
2022-10-07T11:06:06.335Z,66.20
2022-10-07T11:08:38.431Z,66.10
2022-10-07T11:11:09.170Z,66.76
2022-10-07T11:13:56.728Z,65.07
2022-10-07T11:16:28.028Z,64.86
2022-10-07T11:19:16.357Z,65.17
2022-10-07T11:21:48.477Z,65.32
2022-10-07T11:24:28.904Z,65.34
2022-10-07T11:27:19.441Z,65.28
2022-10-07T11:29:55.069Z,64.73
2022-10-07T11:32:49.301Z,64.17
2022-10-07T11:35:38.361Z,62.99
2022-10-07T11:38:12.181Z,63.66
2022-10-07T11:40:52.017Z,63.15
2022-10-07T11:43:30.533Z,63.22
2022-10-07T11:46:07.894Z,62.84
2022-10-07T11:48:43.803Z,61.71
2022-10-07T11:51:21.520Z,62.22
2022-10-07T11:53:48.502Z,61.93
2022-10-07T11:56:16.877Z,62.16
2022-10-07T11:58:44.534Z,62.10
2022-10-07T12:01:26.166Z,62.20
2022-10-07T12:03:54.614Z,61.64
2022-10-07T12:06:20.963Z,60.38
2022-10-07T12:08:47.539Z,60.08
2022-10-07T12:11:17.214Z,59.33
2022-10-07T12:13:47.621Z,59.13
2022-10-07T12:16:32.213Z,59.07
2022-10-07T12:19:07.588Z,59.21
2022-10-07T12:21:57.874Z,58.79
2022-10-07T12:24:24.219Z,59.00
2022-10-07T12:26:51.435Z,59.29
2022-10-07T12:29:59.644Z,58.67
2022-10-07T12:32:48.169Z,58.52
2022-10-07T12:35:29.972Z,58.79
2022-10-07T12:38:23.474Z,58.17
2022-10-07T12:41:14.762Z,58.33
2022-10-07T12:43:57.122Z,57.94
2022-10-07T12:46:26.456Z,58.03
2022-10-07T12:49:30.113Z,58.53
2022-10-07T12:52:00.514Z,58.45
2022-10-07T12:54:44.796Z,59.17
2022-10-07T12:57:16.819Z,59.70
2022-10-07T13:00:02.925Z,59.94
2022-10-07T13:02:57.148Z,60.73
2022-10-07T13:06:01.409Z,60.58
2022-10-07T13:08:42.067Z,61.07
2022-10-07T13:11:47.522Z,60.10
2022-10-07T13:14:36.233Z,59.47
2022-10-07T13:17:16.485Z,59.19
2022-10-07T13:19:56.752Z,58.96
2022-10-07T13:22:24.237Z,59.77
2022-10-07T13:24:55.230Z,59.82
2022-10-07T13:27:32.629Z,60.03
2022-10-07T13:30:01.663Z,59.45
2022-10-07T13:32:34.256Z,59.76
2022-10-07T13:35:29.285Z,59.96
2022-10-07T13:37:55.767Z,59.13
2022-10-07T13:40:34.007Z,59.68
2022-10-07T13:43:02.833Z,59.87
2022-10-07T13:45:32.157Z,60.00
2022-10-07T13:47:58.849Z,59.76
2022-10-07T13:50:27.728Z,59.84
2022-10-07T13:52:56.270Z,61.00
2022-10-07T13:55:25.684Z,60.94
2022-10-07T13:57:54.733Z,60.67
2022-10-07T14:00:21.153Z,60.05
2022-10-07T14:02:49.585Z,60.48
2022-10-07T14:05:29.837Z,60.64
2022-10-07T14:08:10.729Z,60.56
2022-10-07T14:11:05.884Z,60.73
2022-10-07T14:13:34.637Z,60.71
2022-10-07T14:16:01.241Z,60.51
2022-10-07T14:18:31.874Z,60.81
2022-10-07T14:21:16.938Z,60.93
2022-10-07T14:23:46.840Z,61.00
2022-10-07T14:26:17.655Z,61.54
2022-10-07T14:28:44.931Z,61.25
2022-10-07T14:31:37.671Z,61.02
2022-10-07T14:34:32.196Z,61.39
2022-10-07T14:37:10.316Z,61.93
2022-10-07T14:39:49.945Z,61.72
2022-10-07T14:42:35.853Z,62.27
2022-10-07T14:45:04.929Z,62.23
2022-10-07T14:47:31.854Z,62.47
2022-10-07T14:50:01.270Z,62.68
2022-10-07T14:52:31.875Z,62.52
2022-10-07T14:54:59.542Z,62.75
2022-10-07T14:57:26.104Z,63.14
2022-10-07T14:59:53.281Z,63.35
2022-10-07T15:02:20.305Z,63.27
2022-10-07T15:04:47.326Z,63.56
2022-10-07T15:07:16.408Z,63.92
2022-10-07T15:09:44.799Z,63.80
2022-10-07T15:12:12.860Z,64.17
2022-10-07T15:14:39.228Z,63.89
2022-10-07T15:17:06.034Z,63.84
2022-10-07T15:19:35.820Z,63.90
2022-10-07T15:22:02.164Z,63.86
2022-10-07T15:24:30.126Z,63.68
2022-10-07T15:26:56.478Z,63.72
2022-10-07T15:29:23.668Z,63.95
2022-10-07T15:31:52.134Z,63.93
2022-10-07T15:34:18.556Z,63.51
2022-10-07T15:36:48.546Z,63.95
2022-10-07T15:39:15.373Z,64.38
2022-10-07T15:41:43.166Z,64.52
2022-10-07T15:44:16.102Z,64.65
2022-10-07T15:46:44.011Z,64.92
2022-10-07T15:49:10.748Z,65.24
2022-10-07T15:51:37.394Z,64.80
2022-10-07T15:54:05.312Z,64.96
2022-10-07T15:56:32.405Z,65.54
2022-10-07T15:59:00.475Z,65.43
2022-10-07T16:01:28.742Z,65.86
2022-10-07T16:03:55.783Z,65.83
2022-10-07T16:06:27.515Z,65.98
2022-10-07T16:08:56.318Z,66.21
2022-10-07T16:11:22.779Z,66.56
2022-10-07T16:13:49.834Z,66.58
2022-10-07T16:16:22.726Z,67.06
2022-10-07T16:18:51.564Z,67.15
2022-10-07T16:21:22.619Z,67.55
2022-10-07T16:23:56.184Z,67.75
2022-10-07T16:26:26.317Z,67.90
2022-10-07T16:29:12.940Z,68.07
2022-10-07T16:31:41.850Z,68.38
2022-10-07T16:34:10.800Z,68.36
2022-10-07T16:36:40.996Z,68.73
2022-10-07T16:39:10.005Z,69.13
2022-10-07T16:41:37.577Z,69.39
2022-10-07T16:44:04.986Z,69.91
2022-10-07T16:46:32.213Z,70.34
2022-10-07T16:49:00.227Z,70.67
2022-10-07T16:51:30.570Z,70.96
2022-10-07T16:54:01.628Z,71.19
2022-10-07T16:56:30.032Z,71.68
2022-10-07T16:58:58.372Z,71.95
2022-10-07T17:01:26.885Z,72.18
2022-10-07T17:03:54.637Z,72.36
2022-10-07T17:06:22.676Z,72.74
2022-10-07T17:08:49.415Z,72.84
2022-10-07T17:11:31.223Z,73.04
2022-10-07T17:14:06.952Z,73.03
2022-10-07T17:16:42.781Z,73.40
2022-10-07T17:19:12.776Z,73.59
2022-10-07T17:21:41.743Z,73.83
2022-10-07T17:24:09.732Z,74.03
2022-10-07T17:26:37.421Z,74.32
2022-10-07T17:29:09.777Z,74.61
2022-10-07T17:31:39.021Z,74.76
2022-10-07T17:34:06.244Z,74.74
2022-10-07T17:36:33.222Z,75.26
2022-10-07T17:39:00.205Z,75.24
2022-10-07T17:41:28.891Z,75.68
2022-10-07T17:43:57.289Z,75.86
2022-10-07T17:46:25.968Z,76.08
2022-10-07T17:48:54.944Z,76.11
2022-10-07T17:51:24.043Z,76.13
2022-10-07T17:53:51.022Z,76.46
2022-10-07T17:56:17.929Z,76.59
2022-10-07T17:58:45.874Z,76.72
2022-10-07T18:01:19.450Z,76.98
2022-10-07T18:03:51.330Z,77.03
2022-10-07T18:06:17.683Z,77.14
2022-10-07T18:08:44.231Z,77.28
2022-10-07T18:11:10.743Z,77.62
2022-10-07T18:13:56.029Z,77.75
2022-10-07T18:16:22.755Z,78.06
2022-10-07T18:18:58.555Z,78.11
2022-10-07T18:21:25.152Z,78.12
2022-10-07T18:23:54.262Z,78.09
2022-10-07T18:26:20.625Z,78.18
2022-10-07T18:28:47.454Z,78.21
2022-10-07T18:31:16.769Z,78.07
2022-10-07T18:33:44.679Z,78.09
2022-10-07T18:36:16.751Z,78.00
2022-10-07T18:38:44.493Z,77.89
2022-10-07T18:41:13.798Z,77.88
2022-10-07T18:43:41.415Z,77.75
2022-10-07T18:46:14.119Z,77.38
2022-10-07T18:48:41.976Z,77.32
2022-10-07T18:51:10.279Z,77.31
2022-10-07T18:53:38.373Z,77.29
2022-10-07T18:56:07.401Z,77.29
2022-10-07T18:58:39.668Z,77.28
2022-10-07T19:01:08.146Z,77.28
2022-10-07T19:03:37.293Z,77.23
2022-10-07T19:06:09.592Z,77.25
2022-10-07T19:08:36.852Z,77.50
2022-10-07T19:11:05.308Z,77.41
2022-10-07T19:13:51.890Z,77.73
2022-10-07T19:16:23.786Z,77.65
2022-10-07T19:18:55.144Z,77.82
2022-10-07T19:21:23.009Z,77.73
2022-10-07T19:23:51.730Z,77.75
2022-10-07T19:26:21.560Z,77.97
2022-10-07T19:28:49.763Z,77.98
2022-10-07T19:31:25.740Z,77.85
2022-10-07T19:33:56.513Z,77.66
2022-10-07T19:36:23.321Z,77.71
2022-10-07T19:38:53.468Z,77.49
2022-10-07T19:41:22.936Z,77.60
2022-10-07T19:43:49.925Z,77.66
2022-10-07T19:46:18.128Z,77.63
2022-10-07T19:48:45.356Z,77.40
2022-10-07T19:51:14.518Z,77.44
2022-10-07T19:53:46.626Z,77.46
2022-10-07T19:56:25.292Z,77.45
2022-10-07T19:59:05.401Z,77.39
2022-10-07T20:01:34.901Z,77.23
2022-10-07T20:04:14.034Z,77.30
2022-10-07T20:06:41.557Z,77.16
2022-10-07T20:09:11.169Z,77.02
2022-10-07T20:11:37.691Z,76.83
2022-10-07T20:14:05.753Z,76.77
2022-10-07T20:16:34.022Z,76.98
2022-10-07T20:19:06.653Z,77.04
2022-10-07T20:21:35.948Z,76.91
2022-10-07T20:24:03.211Z,76.96
2022-10-07T20:26:35.390Z,76.87
2022-10-07T20:29:06.959Z,76.82
2022-10-07T20:31:35.579Z,76.72
2022-10-07T20:34:02.807Z,76.95
2022-10-07T20:36:32.246Z,77.07
2022-10-07T20:39:20.489Z,76.64
2022-10-07T20:42:05.792Z,76.91
2022-10-07T20:44:32.541Z,76.89
2022-10-07T20:46:58.985Z,76.95
2022-10-07T20:49:28.591Z,77.01
2022-10-07T20:51:57.213Z,77.01
2022-10-07T20:54:25.585Z,77.05
2022-10-07T20:56:52.969Z,77.32
2022-10-07T20:59:20.344Z,77.26
2022-10-07T21:01:46.966Z,77.29
2022-10-07T21:04:14.877Z,77.27
2022-10-07T21:06:42.210Z,77.51
2022-10-07T21:09:09.532Z,77.53
2022-10-07T21:11:36.397Z,77.63
2022-10-07T21:14:03.069Z,77.63
2022-10-07T21:16:30.842Z,77.57
2022-10-07T21:18:57.606Z,77.75
2022-10-07T21:21:24.805Z,77.68
2022-10-07T21:23:51.654Z,77.64
2022-10-07T21:26:18.830Z,77.65
2022-10-07T21:28:48.091Z,77.74
2022-10-07T21:31:17.456Z,77.80
2022-10-07T21:33:47.916Z,77.88
2022-10-07T21:36:17.133Z,78.02
2022-10-07T21:38:45.351Z,78.19
2022-10-07T21:41:20.776Z,78.20
2022-10-07T21:43:54.395Z,78.38
2022-10-07T21:46:23.065Z,78.39
2022-10-07T21:48:49.885Z,78.43
2022-10-07T21:51:16.880Z,78.40
2022-10-07T21:53:44.197Z,78.57
2022-10-07T21:56:12.164Z,78.70
2022-10-07T21:58:39.148Z,78.71
2022-10-07T22:01:07.466Z,78.68
2022-10-07T22:03:34.768Z,78.67
2022-10-07T22:06:06.458Z,78.48
2022-10-07T22:08:36.704Z,78.56
2022-10-07T22:11:15.120Z,78.67
2022-10-07T22:13:46.794Z,78.31
2022-10-07T22:16:16.030Z,78.46
2022-10-07T22:18:49.292Z,78.42
2022-10-07T22:21:22.697Z,78.57
2022-10-07T22:23:50.943Z,78.34
2022-10-07T22:26:18.841Z,78.60
2022-10-07T22:28:46.497Z,78.44
2022-10-07T22:31:14.882Z,78.43
2022-10-07T22:33:42.051Z,78.58
2022-10-07T22:36:10.877Z,78.38
2022-10-07T22:38:38.104Z,78.55
2022-10-07T22:41:10.616Z,78.42
2022-10-07T22:43:44.893Z,78.50
2022-10-07T22:46:26.800Z,78.55
2022-10-07T22:48:56.223Z,78.48
2022-10-07T22:51:24.306Z,78.46
2022-10-07T22:53:53.933Z,78.67
2022-10-07T22:56:22.210Z,78.76
2022-10-07T22:58:53.063Z,78.72
2022-10-07T23:01:20.232Z,78.92
2022-10-07T23:03:46.958Z,78.88
2022-10-07T23:06:15.932Z,79.05
2022-10-07T23:08:44.654Z,79.01
2022-10-07T23:11:16.058Z,79.12
2022-10-07T23:13:42.961Z,79.22
2022-10-07T23:16:12.092Z,79.43
2022-10-07T23:18:43.036Z,79.50
2022-10-07T23:21:18.866Z,79.51
2022-10-07T23:23:47.953Z,79.52
2022-10-07T23:26:19.029Z,79.79
2022-10-07T23:28:47.214Z,79.74
2022-10-07T23:31:14.669Z,79.89
2022-10-07T23:33:41.170Z,80.07
2022-10-07T23:36:10.432Z,80.34
2022-10-07T23:38:38.948Z,80.44
2022-10-07T23:41:06.524Z,80.40
2022-10-07T23:43:33.442Z,80.50
2022-10-07T23:46:01.151Z,80.73
2022-10-07T23:48:27.745Z,80.91
2022-10-07T23:50:57.532Z,81.06
2022-10-07T23:53:23.886Z,81.14
2022-10-07T23:55:52.215Z,81.74
2022-10-07T23:58:20.980Z,82.20
